createdAt,value
2022-09-28T00:03:18.340Z,972.1
2022-09-28T00:08:36.773Z,972.3
2022-09-28T00:13:56.119Z,972.2
2022-09-28T00:19:14.289Z,972.1
2022-09-28T00:24:34.206Z,972
2022-09-28T00:29:52.505Z,971.9
2022-09-28T00:35:11.983Z,971.7
2022-09-28T00:41:46.144Z,971.5
2022-09-28T00:51:10.638Z,971.3
2022-09-28T00:59:43.688Z,971.2
2022-09-28T01:08:46.719Z,971.1
2022-09-28T01:17:46.138Z,970.9
2022-09-28T01:23:04.852Z,970.8
2022-09-28T01:28:23.946Z,970.7
2022-09-28T01:33:43.317Z,970.6
2022-09-28T01:39:02.578Z,970.6
2022-09-28T01:44:22.175Z,970.6
2022-09-28T01:50:56.321Z,970.4
2022-09-28T01:55:00.372Z,970.4
2022-09-28T02:00:19.624Z,970.3
2022-09-28T02:05:38.405Z,970.2
2022-09-28T02:10:57.653Z,970.1
2022-09-28T02:16:17.432Z,970
2022-09-28T02:21:36.606Z,970
2022-09-28T02:26:55.571Z,969.8
2022-09-28T02:32:14.920Z,969.8
2022-09-28T02:37:34.410Z,969.9
2022-09-28T02:42:53.392Z,969.8
2022-09-28T02:48:12.689Z,969.7
2022-09-28T02:53:32.168Z,969.6
2022-09-28T02:58:52.663Z,969.4
2022-09-28T03:04:11.277Z,969.3
2022-09-28T03:09:30.283Z,969.3
2022-09-28T03:14:49.425Z,969.3
2022-09-28T03:20:08.731Z,969.3
2022-09-28T03:25:28.209Z,969
2022-09-28T03:30:47.459Z,969
2022-09-28T03:36:07.097Z,969.1
2022-09-28T03:41:25.849Z,969
2022-09-28T03:46:45.547Z,969
2022-09-28T03:52:04.726Z,969
2022-09-28T03:57:24.294Z,968.8
2022-09-28T04:02:44.164Z,968.8
2022-09-28T04:08:03.234Z,968.6
2022-09-28T04:13:22.380Z,968.8
2022-09-28T04:18:42.039Z,968.8
2022-09-28T04:24:01.791Z,968.7
2022-09-28T04:29:20.920Z,968.5
2022-09-28T04:34:43.845Z,968.6
2022-09-28T04:39:59.401Z,968.8
2022-09-28T04:45:18.321Z,968.8
2022-09-28T04:50:37.751Z,968.9
2022-09-28T04:55:56.790Z,968.9
2022-09-28T05:01:15.926Z,968.9
2022-09-28T05:06:35.168Z,968.9
2022-09-28T05:11:55.163Z,968.9
2022-09-28T05:17:13.580Z,969
2022-09-28T05:22:32.756Z,968.9
2022-09-28T05:27:52.020Z,968.8
2022-09-28T05:33:10.902Z,968.9
2022-09-28T05:38:30.562Z,969
2022-09-28T05:43:49.473Z,969
2022-09-28T05:49:34.394Z,969
2022-09-28T05:54:53.383Z,969.1
2022-09-28T06:00:12.295Z,969.1
2022-09-28T06:05:31.503Z,969.1
2022-09-28T06:10:51.117Z,969.2
2022-09-28T06:16:10.885Z,969.3
2022-09-28T06:21:30.583Z,969.2
2022-09-28T06:26:50.193Z,969.3
2022-09-28T06:32:09.149Z,969.3
2022-09-28T06:37:29.554Z,969.4
2022-09-28T06:42:48.946Z,969.5
2022-09-28T06:48:16.221Z,969.5
2022-09-28T06:53:26.387Z,969.6
2022-09-28T06:58:45.566Z,969.7
2022-09-28T07:04:04.932Z,969.8
2022-09-28T07:09:32.115Z,969.8
2022-09-28T07:14:47.622Z,969.8
2022-09-28T07:20:14.023Z,969.9
2022-09-28T07:25:22.633Z,970
2022-09-28T07:30:42.348Z,970.1
2022-09-28T07:36:01.332Z,970.1
2022-09-28T07:41:20.907Z,970.1
2022-09-28T07:46:39.688Z,970.2
2022-09-28T07:52:00.085Z,970.2
2022-09-28T07:58:34.241Z,970.3
2022-09-28T08:02:50.972Z,970.5
2022-09-28T08:07:58.441Z,970.5
2022-09-28T08:13:16.465Z,970.6
2022-09-28T08:18:35.538Z,970.7
2022-09-28T08:23:53.296Z,970.8
2022-09-28T08:29:12.628Z,970.9
2022-09-28T08:34:32.281Z,970.8
2022-09-28T08:41:06.432Z,970.8
2022-09-28T08:50:31.319Z,970.9
2022-09-28T08:55:50.867Z,971
2022-09-28T09:04:56.378Z,970.9
2022-09-28T09:06:29.756Z,970.9
2022-09-28T09:11:48.976Z,971
2022-09-28T09:17:07.905Z,971.1
2022-09-28T09:22:26.805Z,971.1
2022-09-28T09:27:45.957Z,971.1
2022-09-28T09:33:05.331Z,971.2
2022-09-28T09:38:23.502Z,971.3
2022-09-28T09:43:43.103Z,971.2
2022-09-28T09:50:17.251Z,971.3
2022-09-28T09:59:41.869Z,971.4
2022-09-28T10:05:00.403Z,971.4
2022-09-28T10:10:19.590Z,971.4
2022-09-28T10:16:53.901Z,971.3
2022-09-28T10:20:59.199Z,971.3
2022-09-28T10:29:44.248Z,971.4
2022-09-28T10:33:47.649Z,971.4
2022-09-28T10:36:55.098Z,971.4
2022-09-28T10:42:13.728Z,971.5
2022-09-28T10:47:32.500Z,971.5
2022-09-28T10:52:51.594Z,971.6
2022-09-28T10:58:10.976Z,971.6
2022-09-28T11:03:29.803Z,971.5
2022-09-28T11:08:49.878Z,971.5
2022-09-28T11:14:09.459Z,971.4
2022-09-28T11:19:37.254Z,971.4
2022-09-28T11:24:48.049Z,971.3
2022-09-28T11:30:07.269Z,971.3
2022-09-28T11:35:26.672Z,971.3
2022-09-28T11:40:45.631Z,971.3
2022-09-28T11:46:04.522Z,971.4
2022-09-28T11:51:23.861Z,971.4
2022-09-28T11:56:42.628Z,971.4
2022-09-28T12:02:01.660Z,971.5
2022-09-28T12:07:21.185Z,971.6
2022-09-28T12:12:40.317Z,971.6
2022-09-28T12:17:59.413Z,971.7
2022-09-28T12:23:18.643Z,971.7
2022-09-28T12:30:17.222Z,971.7
2022-09-28T12:34:31.871Z,971.6
2022-09-28T12:39:24.245Z,971.6
2022-09-28T12:44:35.051Z,971.6
2022-09-28T12:50:36.892Z,971.6
2022-09-28T12:55:13.282Z,971.5
2022-09-28T13:00:32.248Z,971.5
2022-09-28T13:05:51.229Z,971.6
2022-09-28T13:12:18.952Z,971.7
2022-09-28T13:16:29.952Z,971.7
2022-09-28T13:21:48.931Z,971.6
2022-09-28T13:27:08.572Z,971.7
2022-09-28T13:32:28.434Z,971.6
2022-09-28T13:39:02.566Z,971.6
2022-09-28T13:43:06.584Z,971.6
2022-09-28T13:48:25.639Z,971.6
2022-09-28T13:53:43.396Z,971.6
2022-09-28T13:59:02.587Z,971.6
2022-09-28T14:04:22.085Z,971.6
2022-09-28T14:09:42.206Z,971.7
2022-09-28T14:15:01.586Z,971.7
2022-09-28T14:21:35.774Z,971.8
2022-09-28T14:25:40.013Z,971.7
2022-09-28T14:30:59.204Z,971.7
2022-09-28T14:36:18.906Z,971.8
2022-09-28T14:41:38.413Z,971.8
2022-09-28T14:48:12.572Z,971.8
2022-09-28T14:52:18.445Z,971.9
2022-09-28T14:57:37.339Z,971.9
2022-09-28T15:02:56.320Z,972
2022-09-28T15:08:15.685Z,972
2022-09-28T15:13:34.561Z,972
2022-09-28T15:18:52.657Z,972.1
2022-09-28T15:24:11.417Z,972.1
2022-09-28T15:30:45.580Z,972.1
2022-09-28T15:40:10.289Z,972.2
2022-09-28T15:45:28.342Z,972.2
2022-09-28T15:50:47.265Z,972.2
2022-09-28T15:56:06.141Z,972.2
2022-09-28T16:02:40.347Z,972.3
2022-09-28T16:06:45.613Z,972.4
2022-09-28T16:12:03.853Z,972.4
2022-09-28T16:17:22.785Z,972.4
2022-09-28T16:23:56.946Z,972.4
2022-09-28T16:33:21.215Z,972.6
2022-09-28T16:38:47.427Z,972.6
2022-09-28T16:43:58.561Z,972.7
2022-09-28T16:49:16.695Z,972.7
2022-09-28T16:54:36.462Z,972.8
2022-09-28T16:59:56.388Z,972.8
2022-09-28T17:05:16.064Z,972.8
2022-09-28T17:10:44.993Z,972.9
2022-09-28T17:17:11.541Z,972.9
2022-09-28T17:21:25.018Z,973
2022-09-28T17:28:23.622Z,973
2022-09-28T17:31:53.364Z,973
2022-09-28T17:47:50.618Z,973
2022-09-28T17:58:28.397Z,973.2
2022-09-28T18:07:01.461Z,973.2
2022-09-28T18:09:06.931Z,973.2
2022-09-28T18:14:24.505Z,973.3
2022-09-28T18:19:43.976Z,973.3
2022-09-28T18:25:02.824Z,973.4
2022-09-28T18:30:21.805Z,973.4
2022-09-28T18:35:41.618Z,973.4
2022-09-28T18:41:00.041Z,973.5
2022-09-28T18:46:20.014Z,973.6
2022-09-28T18:51:39.734Z,973.7
2022-09-28T18:56:59.161Z,973.8
2022-09-28T19:03:33.339Z,973.7
2022-09-28T19:07:36.336Z,973.8
2022-09-28T19:12:55.225Z,973.8
2022-09-28T19:18:15.722Z,973.8
2022-09-28T19:23:33.976Z,973.9
2022-09-28T19:28:52.828Z,973.9
2022-09-28T19:34:21.955Z,974
2022-09-28T19:39:30.833Z,974.1
2022-09-28T19:44:50.402Z,974.1
2022-09-28T19:50:09.518Z,974.2
2022-09-28T19:55:29.548Z,974.2
2022-09-28T20:00:49.215Z,974.3
2022-09-28T20:07:23.359Z,974.4
2022-09-28T20:11:37.994Z,974.5
2022-09-28T20:16:48.167Z,974.5
2022-09-28T20:22:06.286Z,974.4
2022-09-28T20:27:26.404Z,974.5
2022-09-28T20:32:49.361Z,974.5
2022-09-28T20:38:04.358Z,974.5
2022-09-28T20:43:24.428Z,974.6
2022-09-28T20:49:58.572Z,974.6
2022-09-28T20:54:02.970Z,974.6
2022-09-28T21:01:01.522Z,974.7
2022-09-28T21:05:18.253Z,974.6
2022-09-28T21:18:34.548Z,974.7
2022-09-28T21:22:49.940Z,974.6
2022-09-28T21:29:48.550Z,974.5
2022-09-28T21:38:21.616Z,974.6
2022-09-28T21:41:57.190Z,974.5
2022-09-28T21:47:16.508Z,974.5
2022-09-28T21:52:35.972Z,974.6
2022-09-28T21:57:54.402Z,974.5
2022-09-28T22:03:13.105Z,974.6
2022-09-28T22:09:50.469Z,974.5
2022-09-28T22:14:03.841Z,974.5
2022-09-28T22:19:12.267Z,974.5
2022-09-28T22:24:29.994Z,974.5
2022-09-28T22:29:50.205Z,974.5
2022-09-28T22:36:24.372Z,974.5
2022-09-28T22:45:48.939Z,974.5
2022-09-28T22:54:22.001Z,974.5
2022-09-28T23:02:55.166Z,974.5
2022-09-28T23:07:03.118Z,974.5
2022-09-28T23:12:22.710Z,974.5
2022-09-28T23:17:41.173Z,974.5
2022-09-28T23:23:00.289Z,974.5
2022-09-28T23:28:19.786Z,974.5
2022-09-28T23:33:39.853Z,974.4
2022-09-28T23:38:59.002Z,974.4
2022-09-28T23:45:33.156Z,974.5
2022-09-28T23:49:39.133Z,974.5
2022-09-28T23:55:05.861Z,974.5
